createdAt,value
2023-12-09T00:02:11.974Z,71749.19
2023-12-09T00:04:55.536Z,71735.81
2023-12-09T00:07:31.875Z,71714.59
2023-12-09T00:10:15.398Z,71735.53
2023-12-09T00:12:57.184Z,71756.69
2023-12-09T00:15:32.533Z,71769.22
2023-12-09T00:18:10.073Z,71753.97
2023-12-09T00:20:48.532Z,71721.50
2023-12-09T00:23:24.451Z,71735.81
2023-12-09T00:25:59.746Z,71761.13
2023-12-09T00:28:34.625Z,71806.47
2023-12-09T00:31:10.005Z,71772.19
2023-12-09T00:33:44.254Z,71768.00
2023-12-09T00:36:25.256Z,71786.56
2023-12-09T00:39:00.288Z,71731.06
2023-12-09T00:41:33.023Z,71734.28
2023-12-09T00:44:08.001Z,71750.72
2023-12-09T00:46:52.061Z,71796.91
2023-12-09T00:49:24.497Z,71759.41
2023-12-09T00:52:02.199Z,71777.25
2023-12-09T00:54:37.930Z,71787.38
2023-12-09T00:57:12.690Z,71784.72
2023-12-09T00:59:54.982Z,71763.53
2023-12-09T01:02:32.869Z,71779.63
2023-12-09T01:05:05.531Z,71755.16
2023-12-09T01:07:38.711Z,71750.13
2023-12-09T01:10:09.196Z,71746.03
2023-12-09T01:12:38.972Z,71779.63
2023-12-09T01:15:16.734Z,71794.25
2023-12-09T01:17:52.851Z,71799.91
2023-12-09T01:20:28.326Z,71796.66
2023-12-09T01:23:00.517Z,71769.81
2023-12-09T01:25:40.552Z,71750.13
2023-12-09T01:28:18.502Z,71785.91
2023-12-09T01:31:13.024Z,71771.53
2023-12-09T01:34:10.462Z,71760.28
2023-12-09T01:36:49.414Z,71753.03
2023-12-09T01:39:19.078Z,71759.94
2023-12-09T01:41:55.248Z,71748.94
2023-12-09T01:44:33.458Z,71745.63
2023-12-09T01:47:09.078Z,71737.28
2023-12-09T01:49:45.853Z,71734.69
2023-12-09T01:52:18.995Z,71742.97
2023-12-09T01:54:52.485Z,71731.06
2023-12-09T01:57:26.170Z,71746.81
2023-12-09T02:00:07.791Z,71738.78
2023-12-09T02:02:38.257Z,71751.25
2023-12-09T02:05:12.018Z,71745.38
2023-12-09T02:07:46.732Z,71747.13
2023-12-09T02:10:22.590Z,71742.97
2023-12-09T02:13:14.066Z,71767.41
2023-12-09T02:15:45.659Z,71783.22
2023-12-09T02:18:23.644Z,71777.28
2023-12-09T02:21:01.177Z,71758.75
2023-12-09T02:23:35.725Z,71749.84
2023-12-09T02:26:20.690Z,71748.94
2023-12-09T02:29:11.331Z,71768.91
2023-12-09T02:31:47.838Z,71774.91
2023-12-09T02:34:24.698Z,71762.06
2023-12-09T02:36:58.584Z,71756.09
2023-12-09T02:39:37.732Z,71762.06
2023-12-09T02:42:16.852Z,71751.31
2023-12-09T02:44:53.623Z,71773.06
2023-12-09T02:47:26.641Z,71747.47
2023-12-09T02:50:01.645Z,71765.91
2023-12-09T02:52:42.769Z,71766.81
2023-12-09T02:55:27.896Z,71767.94
2023-12-09T02:58:04.873Z,71764.44
2023-12-09T03:00:39.463Z,71740.59
2023-12-09T03:03:21.045Z,71758.75
2023-12-09T03:05:54.033Z,71751.31
2023-12-09T03:08:29.226Z,71771.66
2023-12-09T03:11:02.259Z,71772.78
2023-12-09T03:13:39.944Z,71758.75
2023-12-09T03:16:15.425Z,71754.56
2023-12-09T03:18:48.167Z,71739.41
2023-12-09T03:21:28.676Z,71753.09
2023-12-09T03:24:04.152Z,71760.59
2023-12-09T03:26:38.659Z,71767.41
2023-12-09T03:29:16.776Z,71767.41
2023-12-09T03:31:52.734Z,71767.41
2023-12-09T03:34:32.060Z,71759.34
2023-12-09T03:37:12.677Z,71776.38
2023-12-09T03:39:54.068Z,71773.66
2023-12-09T03:42:32.548Z,71728.66
2023-12-09T03:45:07.687Z,71743.56
2023-12-09T03:47:40.079Z,71746.22
2023-12-09T03:50:13.664Z,71723.28
2023-12-09T03:52:48.425Z,71699.13
2023-12-09T03:55:21.572Z,71725.63
2023-12-09T03:58:00.282Z,71725.69
2023-12-09T04:00:40.578Z,71698.19
2023-12-09T04:03:16.380Z,71695.88
2023-12-09T04:05:48.849Z,71731.63
2023-12-09T04:08:28.918Z,71748.06
2023-12-09T04:11:01.318Z,71703.63
2023-12-09T04:13:34.290Z,71743.50
2023-12-09T04:16:08.229Z,71706.00
2023-12-09T04:18:48.629Z,71728.66
2023-12-09T04:21:23.543Z,71742.97
2023-12-09T04:24:01.040Z,71776.38
2023-12-09T04:26:41.647Z,71782.28
2023-12-09T04:29:14.931Z,71756.09
2023-12-09T04:31:47.091Z,71746.81
2023-12-09T04:34:25.184Z,71724.50
2023-12-09T04:36:57.792Z,71715.88
2023-12-09T04:39:32.580Z,71726.28
2023-12-09T04:42:06.238Z,71741.19
2023-12-09T04:44:44.589Z,71761.47
2023-12-09T04:47:18.905Z,71745.69
2023-12-09T04:49:51.977Z,71744.75
2023-12-09T04:52:32.623Z,71727.75
2023-12-09T04:55:16.161Z,71728.66
2023-12-09T04:57:59.599Z,71707.53
2023-12-09T05:00:33.442Z,71726.59
2023-12-09T05:03:06.421Z,71753.69
2023-12-09T05:05:39.797Z,71736.69
2023-12-09T05:08:10.075Z,71745.03
2023-12-09T05:10:45.085Z,71737.53
2023-12-09T05:13:15.784Z,71718.47
2023-12-09T05:15:53.417Z,71732.88
2023-12-09T05:18:28.258Z,71732.81
2023-12-09T05:21:00.956Z,71721.84
2023-12-09T05:23:35.763Z,71726.28
2023-12-09T05:26:08.703Z,71717.00
2023-12-09T05:28:41.825Z,71725.34
2023-12-09T05:31:14.014Z,71720.97
2023-12-09T05:33:49.608Z,71747.72
2023-12-09T05:36:28.244Z,71711.09
2023-12-09T05:39:03.975Z,71738.19
2023-12-09T05:41:44.148Z,71744.75
2023-12-09T05:44:17.045Z,71751.66
2023-12-09T05:46:54.831Z,71744.16
2023-12-09T05:49:33.684Z,71751.59
2023-12-09T05:52:12.412Z,71747.13
2023-12-09T05:54:56.321Z,71692.63
2023-12-09T05:57:26.170Z,71722.69
2023-12-09T06:00:01.181Z,71737.00
2023-12-09T06:02:35.849Z,71750.06
2023-12-09T06:05:14.857Z,71750.13
2023-12-09T06:07:45.170Z,71712.56
2023-12-09T06:10:21.167Z,71714.94
2023-12-09T06:13:12.823Z,71698.84
2023-12-09T06:15:57.184Z,71700.97
2023-12-09T06:18:33.686Z,71706.94
2023-12-09T06:21:11.318Z,71682.47
2023-12-09T06:23:46.550Z,71696.47
2023-12-09T06:26:24.116Z,71672.63
2023-12-09T06:28:56.276Z,71691.09
2023-12-09T06:31:37.528Z,71683.09
2023-12-09T06:34:12.984Z,71723.28
2023-12-09T06:36:53.360Z,71718.78
2023-12-09T06:39:28.962Z,71731.56
2023-12-09T06:42:07.211Z,71689.97
2023-12-09T06:44:44.821Z,71664.28
2023-12-09T06:47:25.288Z,71681.91
2023-12-09T06:50:07.662Z,71686.94
2023-12-09T06:52:39.830Z,71714.69
2023-12-09T06:55:13.072Z,71763.59
2023-12-09T06:57:50.668Z,71743.56
2023-12-09T07:00:26.777Z,71735.22
2023-12-09T07:03:02.856Z,71725.28
2023-12-09T07:05:43.993Z,71724.81
2023-12-09T07:08:17.162Z,71735.81
2023-12-09T07:10:57.721Z,71727.47
2023-12-09T07:13:30.007Z,71739.34
2023-12-09T07:16:04.604Z,71744.16
2023-12-09T07:18:45.338Z,71713.50
2023-12-09T07:21:30.007Z,71747.72
2023-12-09T07:24:14.274Z,71744.75
2023-12-09T07:26:52.477Z,71711.09
2023-12-09T07:29:32.286Z,71701.50
2023-12-09T07:32:07.865Z,71732.88
2023-12-09T07:34:37.864Z,71741.78
2023-12-09T07:37:11.129Z,71731.13
2023-12-09T07:39:54.332Z,71730.16
2023-12-09T07:42:30.075Z,71742.97
2023-12-09T07:45:09.720Z,71757.28
2023-12-09T07:47:43.002Z,71760.88
2023-12-09T07:50:18.570Z,71794.53
2023-12-09T07:52:57.144Z,71817.59
2023-12-09T07:55:35.178Z,71804.09
2023-12-09T07:58:14.190Z,71759.72
2023-12-09T08:00:52.216Z,71788.56
2023-12-09T08:03:30.561Z,71766.56
2023-12-09T08:06:04.444Z,71768.34
2023-12-09T08:08:52.636Z,71765.09
2023-12-09T08:11:31.764Z,71817.53
2023-12-09T08:14:05.410Z,71808.59
2023-12-09T08:16:41.820Z,71800.22
2023-12-09T08:19:12.758Z,71825.31
2023-12-09T08:21:46.226Z,71828.28
2023-12-09T08:24:27.747Z,71827.34
2023-12-09T08:27:08.083Z,71851.22
2023-12-09T08:29:54.609Z,71824.69
2023-12-09T08:32:27.126Z,71800.22
2023-12-09T08:35:09.722Z,71789.22
2023-12-09T08:37:44.140Z,71805.00
2023-12-09T08:40:23.365Z,71804.75
2023-12-09T08:42:59.599Z,71841.34
2023-12-09T08:45:54.164Z,71907.66
2023-12-09T08:48:29.223Z,71900.50
2023-12-09T08:51:02.320Z,71852.75
2023-12-09T08:53:41.877Z,71884.66
2023-12-09T08:56:24.992Z,71891.59
2023-12-09T08:59:13.080Z,71894.84
2023-12-09T09:01:52.380Z,71871.84
2023-12-09T09:04:34.847Z,71852.34
2023-12-09T09:07:18.918Z,71886.16
2023-12-09T09:10:03.881Z,71887.63
2023-12-09T09:12:52.563Z,71873.63
2023-12-09T09:15:31.880Z,71892.13
2023-12-09T09:18:15.705Z,71895.72
2023-12-09T09:20:57.080Z,71902.28
2023-12-09T09:23:39.085Z,71908.84
2023-12-09T09:26:23.923Z,71897.50
2023-12-09T09:29:03.984Z,71910.31
2023-12-09T09:31:38.610Z,71922.25
2023-12-09T09:34:23.658Z,71921.13
2023-12-09T09:37:15.433Z,71944.69
2023-12-09T09:40:01.765Z,71959.03
2023-12-09T09:42:45.251Z,71940.56
2023-12-09T09:45:32.529Z,71930.94
2023-12-09T09:48:20.632Z,71921.13
2023-12-09T09:51:05.660Z,71935.72
2023-12-09T09:54:03.881Z,71951.25
2023-12-09T09:57:05.692Z,71920.53
2023-12-09T09:59:46.373Z,71959.28
2023-12-09T10:02:29.813Z,71953.59
2023-12-09T10:05:07.846Z,71951.19
2023-12-09T10:07:47.047Z,71895.72
2023-12-09T10:10:28.643Z,71932.75
2023-12-09T10:13:10.115Z,71953.59
2023-12-09T10:15:48.380Z,71955.16
2023-12-09T10:18:41.481Z,71965.91
2023-12-09T10:21:19.795Z,71994.88
2023-12-09T10:24:04.067Z,71962.59
2023-12-09T10:26:39.792Z,71983.78
2023-12-09T10:29:32.984Z,72004.16
2023-12-09T10:32:21.778Z,72008.88
2023-12-09T10:35:19.797Z,72021.44
2023-12-09T10:38:07.389Z,72016.38
2023-12-09T10:40:42.835Z,71982.00
2023-12-09T10:43:29.122Z,71961.13
2023-12-09T10:46:14.857Z,71989.75
2023-12-09T10:48:52.390Z,72000.25
2023-12-09T10:51:33.768Z,71984.38
2023-12-09T10:54:28.582Z,71988.63
2023-12-09T10:57:16.362Z,71965.25
2023-12-09T10:59:51.323Z,71948.25
2023-12-09T11:02:49.963Z,71969.75
2023-12-09T11:05:32.898Z,71947.41
2023-12-09T11:08:13.296Z,71933.00
2023-12-09T11:10:49.637Z,71940.81
2023-12-09T11:13:20.547Z,71953.69
2023-12-09T11:16:20.412Z,71973.38
2023-12-09T11:19:00.358Z,71979.94
2023-12-09T11:21:36.131Z,71999.91
2023-12-09T11:24:26.004Z,72007.72
2023-12-09T11:27:03.409Z,72018.19
2023-12-09T11:29:40.165Z,71988.28
2023-12-09T11:32:25.721Z,71980.53
2023-12-09T11:35:08.919Z,71993.38
2023-12-09T11:37:50.057Z,71996.06
2023-12-09T11:40:28.547Z,72013.44
2023-12-09T11:43:07.920Z,72011.56
2023-12-09T11:45:52.305Z,72008.91
2023-12-09T11:48:37.321Z,71996.63
2023-12-09T11:51:22.659Z,72017.28
2023-12-09T11:54:02.837Z,72038.47
2023-12-09T11:56:39.375Z,71992.47
2023-12-09T11:59:19.919Z,72030.72
2023-12-09T12:02:00.231Z,71991.28
2023-12-09T12:04:38.912Z,71992.19
2023-12-09T12:07:20.125Z,71985.03
2023-12-09T12:09:52.543Z,71996.06
2023-12-09T12:12:33.723Z,71982.31
2023-12-09T12:15:11.155Z,71996.38
2023-12-09T12:17:52.311Z,72012.78
2023-12-09T12:20:32.895Z,71985.56
2023-12-09T12:23:26.361Z,71985.91
2023-12-09T12:26:17.157Z,72009.22
2023-12-09T12:28:59.169Z,72037.88
2023-12-09T12:31:37.516Z,72006.81
2023-12-09T12:34:50.086Z,71982.91
2023-12-09T12:37:38.318Z,71975.72
2023-12-09T12:40:15.541Z,71985.31
2023-12-09T12:43:02.717Z,72013.66
2023-12-09T12:45:49.083Z,72037.59
2023-12-09T12:48:35.957Z,72049.22
2023-12-09T12:51:35.262Z,71994.59
2023-12-09T12:54:13.525Z,71974.53
2023-12-09T12:56:57.216Z,71996.31
2023-12-09T12:59:42.613Z,71984.09
2023-12-09T13:02:20.577Z,71998.72
2023-12-09T13:05:01.535Z,71968.56
2023-12-09T13:07:44.880Z,71982.91
2023-12-09T13:10:25.315Z,72013.97
2023-12-09T13:13:02.653Z,71960.22
2023-12-09T13:15:45.966Z,71975.41
2023-12-09T13:18:23.036Z,71987.09
2023-12-09T13:21:09.651Z,71954.25
2023-12-09T13:23:51.157Z,71957.16
2023-12-09T13:26:29.734Z,71947.66
2023-12-09T13:29:17.765Z,71956.91
2023-12-09T13:31:55.772Z,71942.56
2023-12-09T13:34:36.598Z,71927.69
2023-12-09T13:37:09.725Z,71920.22
2023-12-09T13:40:00.948Z,71936.59
2023-12-09T13:42:31.347Z,71926.72
2023-12-09T13:45:14.796Z,71927.97
2023-12-09T13:47:55.631Z,71935.13
2023-12-09T13:50:30.599Z,71902.56
2023-12-09T13:53:08.491Z,71864.09
2023-12-09T13:55:54.273Z,71853.66
2023-12-09T13:58:41.834Z,71848.56
2023-12-09T14:01:25.505Z,71879.28
2023-12-09T14:04:06.759Z,71887.69
2023-12-09T14:06:53.047Z,71876.03
2023-12-09T14:09:31.653Z,71887.91
2023-12-09T14:12:16.785Z,71900.75
2023-12-09T14:14:53.291Z,71891.53
2023-12-09T14:17:35.166Z,71890.69
2023-12-09T14:20:15.807Z,71927.97
2023-12-09T14:23:20.809Z,71933.59
2023-12-09T14:26:04.639Z,71928.50
2023-12-09T14:28:40.892Z,71884.38
2023-12-09T14:31:16.262Z,71891.88
2023-12-09T14:33:57.014Z,71906.47
2023-12-09T14:36:35.776Z,71908.84
2023-12-09T14:39:16.029Z,71889.16
2023-12-09T14:42:12.455Z,71874.88
2023-12-09T14:44:58.130Z,71854.81
2023-12-09T14:47:58.179Z,71850.63
2023-12-09T14:50:42.814Z,71853.59
2023-12-09T14:53:35.644Z,71832.13
2023-12-09T14:56:16.234Z,71858.97
2023-12-09T14:59:21.837Z,71884.97
2023-12-09T15:02:10.499Z,71880.13
2023-12-09T15:04:51.237Z,71805.00
2023-12-09T15:07:41.247Z,71839.88
2023-12-09T15:10:30.131Z,71840.81
2023-12-09T15:13:09.701Z,71859.91
2023-12-09T15:15:46.833Z,71847.44
2023-12-09T15:18:33.023Z,71868.19
2023-12-09T15:21:24.094Z,71842.88
2023-12-09T15:24:15.792Z,71824.03
2023-12-09T15:26:57.658Z,71807.41
2023-12-09T15:29:37.841Z,71830.66
2023-12-09T15:32:18.233Z,71813.97
2023-12-09T15:35:02.541Z,71874.50
2023-12-09T15:37:42.861Z,71865.81
2023-12-09T15:40:15.823Z,71843.47
2023-12-09T15:42:59.662Z,71829.47
2023-12-09T15:45:31.969Z,71835.75
2023-12-09T15:48:09.803Z,71844.91
2023-12-09T15:50:43.227Z,71830.66
2023-12-09T15:53:26.892Z,71801.44
2023-12-09T15:56:05.358Z,71798.78
2023-12-09T15:58:41.541Z,71802.63
2023-12-09T16:01:14.512Z,71791.00
2023-12-09T16:03:50.582Z,71805.28
2023-12-09T16:06:29.924Z,71776.03
2023-12-09T16:09:04.807Z,71794.81
2023-12-09T16:11:42.980Z,71786.19
2023-12-09T16:14:29.560Z,71794.25
2023-12-09T16:17:03.143Z,71812.75
2023-12-09T16:19:38.189Z,71813.38
2023-12-09T16:22:17.370Z,71824.09
2023-12-09T16:24:54.807Z,71818.38
2023-12-09T16:27:42.336Z,71805.59
2023-12-09T16:30:14.603Z,71826.47
2023-12-09T16:32:51.192Z,71841.34
2023-12-09T16:35:27.169Z,71834.84
2023-12-09T16:38:02.582Z,71843.72
2023-12-09T16:40:37.684Z,71853.00
2023-12-09T16:43:13.497Z,71843.19
2023-12-09T16:45:51.331Z,71833.97
2023-12-09T16:48:23.611Z,71825.31
2023-12-09T16:50:54.203Z,71797.50
2023-12-09T16:53:29.212Z,71748.59
2023-12-09T16:56:02.072Z,71762.59
2023-12-09T16:58:37.172Z,71765.28
2023-12-09T17:01:11.116Z,71762.06
2023-12-09T17:03:43.322Z,71765.03
2023-12-09T17:06:20.508Z,71806.78
2023-12-09T17:09:01.265Z,71781.16
2023-12-09T17:11:36.450Z,71736.34
2023-12-09T17:14:10.881Z,71731.31
2023-12-09T17:16:44.812Z,71812.16
2023-12-09T17:19:14.921Z,71763.25
2023-12-09T17:21:53.575Z,71745.63
2023-12-09T17:24:30.493Z,71743.56
2023-12-09T17:27:00.582Z,71752.19
2023-12-09T17:29:35.927Z,71759.06
2023-12-09T17:32:13.256Z,71731.63
2023-12-09T17:34:45.576Z,71738.78
2023-12-09T17:37:18.363Z,71732.22
2023-12-09T17:39:53.743Z,71719.13
2023-12-09T17:42:31.491Z,71713.44
2023-12-09T17:45:02.820Z,71724.50
2023-12-09T17:47:35.588Z,71711.63
2023-12-09T17:50:11.310Z,71695.28
2023-12-09T17:52:45.973Z,71691.63
2023-12-09T17:55:20.862Z,71701.84
2023-12-09T17:58:09.326Z,71695.28
2023-12-09T18:00:44.816Z,71706.00
2023-12-09T18:03:17.109Z,71686.34
2023-12-09T18:05:54.837Z,71704.56
2023-12-09T18:08:27.884Z,71722.09
2023-12-09T18:11:13.850Z,71736.09
2023-12-09T18:13:47.522Z,71705.16
2023-12-09T18:16:23.801Z,71718.22
2023-12-09T18:19:01.541Z,71705.34
2023-12-09T18:21:39.122Z,71715.28
2023-12-09T18:24:20.332Z,71732.78
2023-12-09T18:26:53.575Z,71730.47
2023-12-09T18:29:28.837Z,71721.50
2023-12-09T18:32:05.685Z,71722.97
2023-12-09T18:34:38.221Z,71711.03
2023-12-09T18:37:19.783Z,71731.06
2023-12-09T18:39:52.862Z,71757.28
2023-12-09T18:42:28.042Z,71757.00
2023-12-09T18:45:09.458Z,71742.38
2023-12-09T18:47:47.504Z,71728.06
2023-12-09T18:50:19.774Z,71719.13
2023-12-09T18:53:14.842Z,71729.84
2023-12-09T18:55:53.864Z,71744.16
2023-12-09T18:58:34.356Z,71729.00
2023-12-09T19:01:11.505Z,71738.19
2023-12-09T19:03:44.418Z,71722.38
2023-12-09T19:06:23.828Z,71740.00
2023-12-09T19:08:57.641Z,71748.94
2023-12-09T19:11:35.440Z,71736.41
2023-12-09T19:14:19.653Z,71744.16
2023-12-09T19:17:12.611Z,71701.25
2023-12-09T19:19:45.662Z,71711.03
2023-12-09T19:22:20.453Z,71717.91
2023-12-09T19:25:05.847Z,71737.59
2023-12-09T19:27:50.254Z,71699.13
2023-12-09T19:30:30.390Z,71697.06
2023-12-09T19:33:00.480Z,71701.25
2023-12-09T19:35:33.300Z,71701.25
2023-12-09T19:38:10.498Z,71706.28
2023-12-09T19:40:52.892Z,71707.13
2023-12-09T19:43:27.693Z,71717.00
2023-12-09T19:46:05.480Z,71697.06
2023-12-09T19:48:36.984Z,71716.16
2023-12-09T19:51:09.319Z,71708.31
2023-12-09T19:53:41.806Z,71687.19
2023-12-09T19:56:17.620Z,71700.66
2023-12-09T19:58:46.825Z,71691.72
2023-12-09T20:01:22.130Z,71697.66
2023-12-09T20:03:49.205Z,71697.66
2023-12-09T20:06:22.889Z,71696.72
2023-12-09T20:08:58.788Z,71696.47
2023-12-09T20:11:38.690Z,71689.59
2023-12-09T20:14:13.283Z,71685.75
2023-12-09T20:16:46.516Z,71685.47
2023-12-09T20:19:18.577Z,71674.69
2023-12-09T20:21:52.970Z,71733.13
2023-12-09T20:24:25.225Z,71770.06
2023-12-09T20:26:55.743Z,71695.28
2023-12-09T20:29:29.942Z,71755.81
2023-12-09T20:32:02.494Z,71651.16
2023-12-09T20:34:32.567Z,71655.34
2023-12-09T20:37:03.520Z,71674.75
2023-12-09T20:39:45.399Z,71673.22
2023-12-09T20:42:14.673Z,71693.47
2023-12-09T20:44:47.545Z,71664.88
2023-12-09T20:47:19.604Z,71660.44
2023-12-09T20:49:51.879Z,71690.84
2023-12-09T20:52:21.486Z,71682.16
2023-12-09T20:54:57.166Z,71706.63
2023-12-09T20:57:34.629Z,71699.13
2023-12-09T21:00:04.477Z,71699.72
2023-12-09T21:02:36.727Z,71699.19
2023-12-09T21:05:09.766Z,71741.13
2023-12-09T21:07:46.933Z,71736.75
2023-12-09T21:10:19.251Z,71737.28
2023-12-09T21:12:51.695Z,71757.22
2023-12-09T21:15:21.969Z,71747.41
2023-12-09T21:17:57.081Z,71758.75
2023-12-09T21:20:28.887Z,71762.66
2023-12-09T21:23:00.091Z,71766.81
2023-12-09T21:25:35.956Z,71732.56
2023-12-09T21:28:11.673Z,71714.09
2023-12-09T21:30:46.843Z,71693.22
2023-12-09T21:33:21.781Z,71746.81
2023-12-09T21:35:54.093Z,71760.28
2023-12-09T21:38:32.566Z,71772.28
2023-12-09T21:41:04.336Z,71762.66
2023-12-09T21:43:37.489Z,71769.75
2023-12-09T21:46:15.577Z,71781.16
2023-12-09T21:48:48.098Z,71745.88
2023-12-09T21:51:22.857Z,71761.47
2023-12-09T21:53:56.923Z,71757.28
2023-12-09T21:56:29.333Z,71771.59
2023-12-09T21:58:59.338Z,71742.66
2023-12-09T22:01:36.549Z,71764.44
2023-12-09T22:04:11.863Z,71775.44
2023-12-09T22:06:47.693Z,71762.97
2023-12-09T22:09:21.516Z,71769.22
2023-12-09T22:11:59.410Z,71777.28
2023-12-09T22:14:32.598Z,71758.81
2023-12-09T22:17:03.658Z,71771.59
2023-12-09T22:19:36.637Z,71788.88
2023-12-09T22:22:08.771Z,71764.44
2023-12-09T22:24:43.713Z,71784.13
2023-12-09T22:27:19.260Z,71785.91
2023-12-09T22:29:51.273Z,71767.41
2023-12-09T22:32:28.605Z,71770.28
2023-12-09T22:35:00.512Z,71781.41
2023-12-09T22:37:32.529Z,71817.53
2023-12-09T22:40:02.585Z,71828.28
2023-12-09T22:42:34.904Z,71815.22
2023-12-09T22:45:05.832Z,71845.25
2023-12-09T22:47:36.184Z,71810.97
2023-12-09T22:50:11.979Z,71815.72
2023-12-09T22:52:49.220Z,71803.47
2023-12-09T22:55:23.407Z,71802.09
2023-12-09T22:57:52.863Z,71814.28
2023-12-09T23:00:34.451Z,71830.66
2023-12-09T23:03:06.694Z,71785.91
2023-12-09T23:05:42.467Z,71771.59
2023-12-09T23:08:18.135Z,71783.81
2023-12-09T23:10:53.243Z,71759.66
2023-12-09T23:13:26.418Z,71745.38
2023-12-09T23:15:59.604Z,71733.44
2023-12-09T23:18:39.525Z,71722.44
2023-12-09T23:21:15.414Z,71726.28
2023-12-09T23:23:50.960Z,71741.44
2023-12-09T23:26:24.458Z,71759.66
2023-12-09T23:28:59.751Z,71770.66
2023-12-09T23:31:39.506Z,71766.81
2023-12-09T23:34:16.672Z,71753.09
2023-12-09T23:36:49.935Z,71753.69
2023-12-09T23:39:19.035Z,71747.47
2023-12-09T23:41:52.450Z,71765.91
2023-12-09T23:44:24.062Z,71726.59
2023-12-09T23:46:55.814Z,71724.50
2023-12-09T23:49:27.910Z,71699.78
2023-12-09T23:52:00.561Z,71684.22
2023-12-09T23:54:35.277Z,71675.94
2023-12-09T23:57:08.836Z,71687.47
2023-12-09T23:59:39.129Z,71708.66
